createdAt,value
2019-06-20T00:02:01.714Z,53.10
2019-06-20T00:04:04.155Z,48.63
2019-06-20T00:06:06.340Z,42.65
2019-06-20T00:08:08.492Z,48.25
2019-06-20T00:10:10.653Z,46.20
2019-06-20T00:12:12.647Z,54.10
2019-06-20T00:14:16.562Z,53.48
2019-06-20T00:16:18.582Z,53.33
2019-06-20T00:18:20.609Z,55.63
2019-06-20T00:20:22.840Z,51.28
2019-06-20T00:22:24.813Z,51.25
2019-06-20T00:24:26.850Z,56.50
2019-06-20T00:26:29.997Z,57.35
2019-06-20T00:28:32.008Z,51.35
2019-06-20T00:30:34.058Z,54.60
2019-06-20T00:32:36.113Z,58.40
2019-06-20T00:34:38.124Z,64.72
2019-06-20T00:36:40.262Z,50.35
2019-06-20T00:38:42.289Z,46.42
2019-06-20T00:40:47.294Z,49.53
2019-06-20T00:42:49.290Z,52.38
2019-06-20T00:44:51.527Z,54.83
2019-06-20T00:46:53.554Z,45.23
2019-06-20T00:48:55.591Z,50.98
2019-06-20T00:50:57.702Z,50.10
2019-06-20T00:52:59.824Z,50.50
2019-06-20T00:55:02.375Z,54.08
2019-06-20T00:57:04.580Z,54.20
2019-06-20T00:59:06.638Z,51.75
2019-06-20T01:01:08.673Z,51.83
2019-06-20T01:03:10.756Z,53.70
2019-06-20T01:05:12.890Z,49.08
2019-06-20T01:07:15.158Z,52.60
2019-06-20T01:09:17.368Z,49.23
2019-06-20T01:11:19.382Z,55.40
2019-06-20T01:13:33.164Z,55.38
2019-06-20T01:15:25.525Z,56.23
2019-06-20T01:17:27.634Z,58.60
2019-06-20T01:19:29.628Z,59.77
2019-06-20T01:21:32.134Z,61.85
2019-06-20T01:23:34.218Z,56.85
2019-06-20T01:25:37.960Z,63.35
2019-06-20T01:27:39.997Z,62.08
2019-06-20T01:29:41.995Z,62.23
2019-06-20T01:31:44.045Z,54.42
2019-06-20T01:33:46.266Z,65.87
2019-06-20T01:35:48.275Z,64.77
2019-06-20T01:37:50.280Z,65.12
2019-06-20T01:39:52.385Z,54.35
2019-06-20T01:41:54.427Z,59.15
2019-06-20T01:43:56.448Z,61.95
2019-06-20T01:46:00.206Z,67.22
2019-06-20T01:48:02.262Z,69.00
2019-06-20T01:50:04.589Z,59.35
2019-06-20T01:52:06.609Z,53.38
2019-06-20T01:54:08.610Z,57.60
2019-06-20T01:56:10.654Z,53.08
2019-06-20T01:58:12.623Z,55.45
2019-06-20T02:00:42.822Z,59.13
2019-06-20T02:02:44.809Z,58.55
2019-06-20T02:04:46.854Z,60.98
2019-06-20T02:06:48.993Z,61.13
2019-06-20T02:08:50.990Z,56.48
2019-06-20T02:10:53.541Z,63.55
2019-06-20T02:14:57.113Z,61.77
2019-06-20T02:16:59.142Z,59.98
2019-06-20T02:19:01.155Z,64.10
2019-06-20T02:21:03.906Z,62.13
2019-06-20T02:23:06.474Z,58.20
2019-06-20T02:27:10.485Z,63.87
2019-06-20T02:29:12.576Z,62.48
2019-06-20T02:31:14.728Z,68.28
2019-06-20T02:33:16.728Z,61.28
2019-06-20T02:35:18.751Z,62.13
2019-06-20T02:37:20.791Z,64.27
2019-06-20T02:39:22.768Z,64.17
2019-06-20T02:41:24.786Z,65.15
2019-06-20T02:43:27.138Z,59.45
2019-06-20T02:45:29.151Z,63.92
2019-06-20T02:47:31.191Z,63.68
2019-06-20T02:49:33.209Z,67.78
2019-06-20T02:51:35.391Z,63.85
2019-06-20T02:53:37.791Z,66.00
2019-06-20T02:57:41.593Z,66.10
2019-06-20T02:59:43.677Z,65.12
2019-06-20T03:01:45.704Z,60.00
2019-06-20T03:03:47.675Z,64.30
2019-06-20T03:05:49.675Z,57.90
2019-06-20T03:07:51.778Z,63.73
2019-06-20T03:09:53.804Z,65.03
2019-06-20T03:11:55.788Z,58.87
2019-06-20T03:13:57.793Z,57.62
2019-06-20T03:16:01.565Z,65.37
2019-06-20T03:18:03.815Z,66.30
2019-06-20T03:20:07.737Z,68.87
2019-06-20T03:22:09.743Z,68.07
2019-06-20T03:24:12.016Z,60.12
2019-06-20T03:26:14.021Z,63.28
2019-06-20T03:28:16.032Z,64.27
2019-06-20T03:30:19.051Z,66.82
2019-06-20T03:32:21.054Z,62.43
2019-06-20T03:34:23.233Z,67.55
2019-06-20T03:36:25.286Z,56.92
2019-06-20T03:38:28.315Z,52.73
2019-06-20T03:40:30.401Z,62.40
2019-06-20T03:42:32.469Z,65.00
2019-06-20T03:44:34.470Z,64.00
2019-06-20T03:46:36.673Z,57.30
2019-06-20T03:48:39.813Z,56.50
2019-06-20T03:50:41.965Z,56.53
2019-06-20T03:52:44.052Z,62.40
2019-06-20T03:54:46.100Z,57.23
2019-06-20T03:56:48.118Z,57.48
2019-06-20T03:58:50.331Z,51.40
2019-06-20T04:00:52.778Z,59.30
2019-06-20T04:02:54.789Z,53.73
2019-06-20T04:04:56.793Z,61.58
2019-06-20T04:06:58.819Z,64.53
2019-06-20T04:09:00.927Z,51.53
2019-06-20T04:11:03.062Z,50.85
2019-06-20T04:13:05.104Z,46.13
2019-06-20T04:15:18.733Z,46.90
2019-06-20T04:17:11.024Z,50.78
2019-06-20T04:19:13.209Z,46.98
2019-06-20T04:21:15.196Z,50.60
2019-06-20T04:23:17.220Z,48.80
2019-06-20T04:25:19.465Z,41.83
2019-06-20T04:27:22.604Z,44.83
2019-06-20T04:29:24.598Z,46.83
2019-06-20T04:31:26.626Z,43.58
2019-06-20T04:33:28.625Z,37.85
2019-06-20T04:35:30.664Z,40.48
2019-06-20T04:37:33.300Z,45.23
2019-06-20T04:39:35.334Z,50.85
2019-06-20T04:41:37.345Z,45.92
2019-06-20T04:43:40.621Z,43.87
2019-06-20T04:46:00.531Z,42.08
2019-06-20T04:48:02.620Z,44.40
2019-06-20T04:50:05.665Z,40.95
2019-06-20T04:52:07.731Z,44.15
2019-06-20T04:54:09.785Z,47.20
2019-06-20T04:56:12.104Z,50.28
2019-06-20T04:58:14.062Z,56.25
2019-06-20T05:00:16.309Z,47.35
2019-06-20T05:02:20.262Z,51.92
2019-06-20T05:04:22.303Z,49.42
2019-06-20T05:06:24.627Z,46.20
2019-06-20T05:08:26.986Z,45.83
2019-06-20T05:12:30.892Z,52.80
2019-06-20T05:14:33.115Z,51.13
2019-06-20T05:16:35.164Z,54.33
2019-06-20T05:18:37.373Z,49.80
2019-06-20T05:20:39.388Z,48.42
2019-06-20T05:22:41.738Z,51.15
2019-06-20T05:26:58.047Z,58.00
2019-06-20T05:29:05.184Z,55.65
2019-06-20T05:31:05.829Z,58.15
2019-06-20T05:33:10.102Z,53.55
2019-06-20T05:35:12.339Z,53.60
2019-06-20T05:37:14.564Z,57.62
2019-06-20T05:39:17.009Z,46.28
2019-06-20T05:43:20.778Z,43.73
2019-06-20T05:45:22.814Z,39.55
2019-06-20T05:47:25.074Z,45.05
2019-06-20T05:49:27.542Z,49.98
2019-06-20T05:53:33.013Z,40.38
2019-06-20T05:55:35.251Z,40.50
2019-06-20T05:57:37.712Z,40.05
2019-06-20T06:01:43.334Z,40.25
2019-06-20T06:03:45.384Z,37.33
2019-06-20T06:05:47.441Z,29.57
2019-06-20T06:07:49.445Z,34.58
2019-06-20T06:09:51.526Z,28.42
2019-06-20T06:11:53.621Z,29.30
2019-06-20T06:13:56.281Z,23.18
2019-06-20T06:15:58.513Z,20.80
2019-06-20T06:20:04.079Z,23.15
2019-06-20T06:22:06.450Z,24.82
2019-06-20T06:26:10.787Z,19.30
2019-06-20T06:30:15.746Z,23.10
2019-06-20T06:32:20.198Z,25.48
2019-06-20T06:34:22.233Z,25.25
2019-06-20T06:36:24.599Z,22.73
2019-06-20T06:40:29.255Z,25.37
2019-06-20T06:42:31.282Z,17.92
2019-06-20T06:44:33.483Z,23.05
2019-06-20T06:46:44.986Z,18.40
2019-06-20T06:48:39.570Z,20.72
2019-06-20T06:50:41.667Z,21.23
2019-06-20T06:52:43.667Z,21.97
2019-06-20T06:54:45.710Z,25.35
2019-06-20T06:56:47.865Z,24.82
2019-06-20T06:58:49.867Z,26.97
2019-06-20T07:00:51.863Z,25.15
2019-06-20T07:02:53.895Z,22.37
2019-06-20T07:04:55.969Z,19.12
2019-06-20T07:06:59.332Z,24.77
2019-06-20T07:09:01.426Z,21.40
2019-06-20T07:11:05.192Z,25.57
2019-06-20T07:15:09.538Z,19.02
2019-06-20T07:17:11.883Z,23.57
2019-06-20T07:19:13.889Z,24.63
2019-06-20T07:21:15.948Z,29.12
2019-06-20T07:23:18.123Z,25.23
2019-06-20T07:25:20.546Z,28.32
2019-06-20T07:29:24.186Z,27.55
2019-06-20T07:31:26.175Z,30.70
2019-06-20T07:33:28.231Z,27.65
2019-06-20T07:35:30.690Z,33.92
2019-06-20T07:39:34.598Z,32.20
2019-06-20T07:41:36.790Z,33.95
2019-06-20T07:43:39.036Z,35.15
2019-06-20T07:45:41.066Z,36.60
2019-06-20T07:47:43.155Z,41.28
2019-06-20T07:49:45.229Z,41.08
2019-06-20T07:51:47.291Z,37.53
2019-06-20T07:53:49.609Z,39.58
2019-06-20T07:55:51.613Z,46.13
2019-06-20T07:57:53.924Z,49.85
2019-06-20T07:59:56.040Z,51.35
2019-06-20T08:01:58.041Z,50.03
2019-06-20T08:04:00.683Z,50.98
2019-06-20T08:06:02.762Z,51.75
2019-06-20T08:08:04.832Z,52.45
2019-06-20T08:10:08.277Z,53.90
2019-06-20T08:12:10.310Z,51.08
2019-06-20T08:14:14.063Z,54.58
2019-06-20T08:16:16.092Z,56.23
2019-06-20T08:18:18.133Z,50.33
2019-06-20T08:20:20.352Z,54.75
2019-06-20T08:22:22.513Z,51.95
2019-06-20T08:24:24.497Z,51.70
2019-06-20T08:26:26.560Z,41.80
2019-06-20T08:28:28.806Z,50.43
2019-06-20T08:30:33.755Z,40.92
2019-06-20T08:32:35.751Z,44.25
2019-06-20T08:34:38.043Z,42.00
2019-06-20T08:36:40.049Z,45.00
2019-06-20T08:38:42.047Z,45.08
2019-06-20T08:40:44.089Z,42.85
2019-06-20T08:42:46.086Z,37.28
2019-06-20T08:44:48.260Z,36.68
2019-06-20T08:46:50.564Z,38.60
2019-06-20T08:48:52.639Z,34.43
2019-06-20T08:50:56.851Z,36.33
2019-06-20T08:52:59.806Z,35.30
2019-06-20T08:55:03.330Z,29.12
2019-06-20T08:57:05.945Z,30.97
2019-06-20T08:59:23.197Z,31.85
2019-06-20T09:01:12.057Z,30.72
2019-06-20T09:03:14.155Z,32.10
2019-06-20T09:05:16.756Z,31.82
2019-06-20T09:07:18.753Z,27.32
2019-06-20T09:09:21.170Z,21.20
2019-06-20T09:13:24.815Z,10.93
2019-06-20T09:15:26.961Z,12.20
2019-06-20T09:17:29.349Z,7.53
2019-06-20T09:19:31.340Z,8.60
2019-06-20T09:21:33.607Z,5.45
2019-06-20T09:23:35.843Z,5.53
2019-06-20T09:27:40.185Z,3.30
2019-06-20T09:29:42.238Z,3.80
2019-06-20T09:31:44.835Z,6.72
2019-06-20T09:33:47.410Z,9.80
2019-06-20T09:35:49.424Z,9.65
2019-06-20T09:37:51.972Z,8.73
2019-06-20T09:39:55.314Z,7.55
2019-06-20T09:41:58.849Z,6.65
2019-06-20T09:44:00.952Z,11.03
2019-06-20T09:46:03.272Z,5.45
2019-06-20T09:48:05.316Z,8.23
2019-06-20T09:50:08.332Z,8.95
2019-06-20T09:52:10.345Z,5.85
2019-06-20T09:54:12.352Z,5.90
2019-06-20T09:56:14.540Z,8.75
2019-06-20T09:58:16.745Z,8.13
2019-06-20T10:00:19.587Z,10.13
2019-06-20T10:02:21.587Z,11.18
2019-06-20T10:04:23.660Z,12.03
2019-06-20T10:06:26.830Z,11.25
2019-06-20T10:08:28.918Z,10.82
2019-06-20T10:10:31.307Z,13.53
2019-06-20T10:12:33.305Z,9.33
2019-06-20T10:14:35.332Z,20.77
2019-06-20T10:16:45.864Z,14.95
2019-06-20T10:18:41.325Z,9.35
2019-06-20T10:20:44.377Z,10.45
2019-06-20T10:22:48.511Z,11.70
2019-06-20T10:24:51.313Z,8.13
2019-06-20T10:26:53.588Z,7.62
2019-06-20T10:28:55.662Z,7.80
2019-06-20T10:30:58.793Z,7.72
2019-06-20T10:33:00.968Z,6.15
2019-06-20T10:35:03.701Z,7.40
2019-06-20T10:37:05.724Z,7.78
2019-06-20T10:39:10.058Z,7.50
2019-06-20T10:41:12.033Z,9.58
2019-06-20T10:43:14.055Z,5.78
2019-06-20T10:45:17.464Z,5.37
2019-06-20T10:47:31.629Z,9.45
2019-06-20T10:49:23.423Z,7.20
2019-06-20T10:51:57.523Z,5.37
2019-06-20T10:53:59.694Z,10.53
2019-06-20T10:56:01.710Z,6.40
2019-06-20T10:58:03.816Z,7.35
2019-06-20T11:00:09.022Z,4.58
2019-06-20T11:02:11.000Z,7.20
2019-06-20T11:04:14.123Z,4.65
2019-06-20T11:06:16.242Z,8.30
2019-06-20T11:08:18.438Z,6.75
2019-06-20T11:10:21.289Z,7.08
2019-06-20T11:12:23.311Z,5.05
2019-06-20T11:14:25.350Z,7.60
2019-06-20T11:16:27.362Z,7.30
2019-06-20T11:18:30.103Z,6.22
2019-06-20T11:20:32.098Z,5.83
2019-06-20T11:22:34.117Z,3.90
2019-06-20T11:24:38.874Z,5.03
2019-06-20T11:26:41.102Z,5.12
2019-06-20T11:28:43.169Z,4.20
2019-06-20T11:30:56.086Z,2.60
2019-06-20T11:32:49.061Z,4.90
2019-06-20T11:34:51.436Z,3.87
2019-06-20T11:38:55.273Z,5.67
2019-06-20T11:40:57.362Z,5.05
2019-06-20T11:42:59.407Z,3.45
2019-06-20T11:45:01.438Z,4.58
2019-06-20T11:47:03.734Z,6.05
2019-06-20T11:49:06.122Z,5.92
2019-06-20T11:51:08.281Z,8.58
2019-06-20T11:53:10.337Z,3.92
2019-06-20T11:55:15.028Z,6.60
2019-06-20T11:57:17.036Z,4.60
2019-06-20T11:59:19.094Z,7.50
2019-06-20T12:01:32.593Z,4.60
2019-06-20T12:03:25.048Z,7.97
2019-06-20T12:05:27.079Z,5.67
2019-06-20T12:07:29.062Z,8.13
2019-06-20T12:09:31.323Z,4.92
2019-06-20T12:11:33.608Z,6.42
2019-06-20T12:13:38.749Z,7.67
2019-06-20T12:15:41.665Z,6.90
2019-06-20T12:17:45.406Z,6.00
2019-06-20T12:19:48.782Z,7.33
2019-06-20T12:23:53.202Z,5.37
2019-06-20T12:25:55.449Z,7.10
2019-06-20T12:27:57.440Z,6.75
2019-06-20T12:29:59.463Z,6.22
2019-06-20T12:32:01.473Z,5.42
2019-06-20T12:34:04.458Z,7.62
2019-06-20T12:36:06.791Z,8.50
2019-06-20T12:38:08.814Z,7.95
2019-06-20T12:40:11.514Z,6.70
2019-06-20T12:42:13.720Z,10.70
2019-06-20T12:44:15.724Z,7.03
2019-06-20T12:46:17.723Z,5.03
2019-06-20T12:48:19.758Z,7.78
2019-06-20T12:50:22.137Z,5.33
2019-06-20T12:52:24.143Z,7.62
2019-06-20T12:54:26.243Z,6.30
2019-06-20T12:56:28.251Z,6.10
2019-06-20T12:58:30.567Z,8.23
2019-06-20T13:00:34.473Z,7.30
2019-06-20T13:02:36.507Z,11.22
2019-06-20T13:04:39.902Z,10.15
2019-06-20T13:06:42.292Z,8.70
2019-06-20T13:08:45.257Z,12.78
2019-06-20T13:10:48.315Z,8.83
2019-06-20T13:12:51.553Z,8.88
2019-06-20T13:14:53.718Z,11.25
2019-06-20T13:16:55.725Z,11.48
2019-06-20T13:18:57.758Z,11.78
2019-06-20T13:20:59.785Z,12.93
2019-06-20T13:23:02.186Z,12.98
2019-06-20T13:25:04.533Z,9.93
2019-06-20T13:29:08.431Z,11.73
2019-06-20T13:31:10.477Z,19.15
2019-06-20T13:33:12.549Z,9.53
2019-06-20T13:35:15.145Z,18.55
2019-06-20T13:37:17.161Z,10.72
2019-06-20T13:39:19.194Z,9.63
2019-06-20T13:41:21.217Z,13.20
2019-06-20T13:43:23.267Z,10.25
2019-06-20T13:45:25.959Z,14.55
2019-06-20T13:47:27.966Z,12.98
2019-06-20T13:49:30.017Z,14.15
2019-06-20T13:51:32.020Z,11.50
2019-06-20T13:53:34.042Z,11.20
2019-06-20T13:55:36.146Z,10.95
2019-06-20T13:57:38.446Z,12.28
2019-06-20T13:59:41.627Z,13.05
2019-06-20T14:01:45.648Z,14.98
2019-06-20T14:03:48.731Z,10.30
2019-06-20T14:05:51.744Z,14.95
2019-06-20T14:07:55.848Z,10.35
2019-06-20T14:09:57.802Z,10.23
2019-06-20T14:11:59.998Z,10.55
2019-06-20T14:14:02.530Z,11.75
2019-06-20T14:18:06.491Z,12.33
2019-06-20T14:20:09.146Z,11.20
2019-06-20T14:22:12.209Z,13.40
2019-06-20T14:24:14.188Z,15.68
2019-06-20T14:26:16.207Z,17.05
2019-06-20T14:28:18.266Z,14.98
2019-06-20T14:30:20.827Z,13.55
2019-06-20T14:32:23.926Z,18.40
2019-06-20T14:34:25.936Z,14.43
2019-06-20T14:36:27.985Z,13.08
2019-06-20T14:38:30.133Z,14.70
2019-06-20T14:40:33.510Z,16.30
2019-06-20T14:42:35.549Z,16.48
2019-06-20T14:44:37.609Z,15.98
2019-06-20T14:46:39.613Z,15.30
2019-06-20T14:48:41.639Z,16.42
2019-06-20T14:50:44.609Z,16.80
2019-06-20T14:52:48.555Z,15.50
2019-06-20T14:54:51.785Z,19.67
2019-06-20T14:56:53.980Z,23.27
2019-06-20T14:58:56.045Z,20.55
2019-06-20T15:00:58.089Z,26.85
2019-06-20T15:03:00.138Z,26.82
2019-06-20T15:05:02.203Z,20.68
2019-06-20T15:07:04.219Z,21.02
2019-06-20T15:09:06.906Z,25.57
2019-06-20T15:11:12.337Z,21.40
2019-06-20T15:13:14.625Z,23.85
2019-06-20T15:15:16.996Z,22.75
2019-06-20T15:17:19.059Z,23.70
2019-06-20T15:19:22.472Z,21.00
2019-06-20T15:21:24.493Z,22.40
2019-06-20T15:23:27.590Z,22.32
2019-06-20T15:25:29.557Z,21.82
2019-06-20T15:27:31.576Z,22.13
2019-06-20T15:29:33.783Z,24.00
2019-06-20T15:31:35.921Z,26.75
2019-06-20T15:33:37.868Z,23.12
2019-06-20T15:37:41.963Z,24.57
2019-06-20T15:39:44.344Z,21.60
2019-06-20T15:43:50.047Z,24.87
2019-06-20T15:45:53.893Z,21.37
2019-06-20T15:47:56.150Z,22.77
2019-06-20T15:49:58.231Z,20.35
2019-06-20T15:52:00.342Z,18.48
2019-06-20T15:54:02.337Z,20.50
2019-06-20T15:56:04.411Z,18.10
2019-06-20T15:58:06.427Z,21.42
2019-06-20T16:00:08.847Z,21.17
2019-06-20T16:02:10.944Z,16.50
2019-06-20T16:04:12.957Z,19.37
2019-06-20T16:06:15.078Z,18.20
2019-06-20T16:08:17.125Z,18.05
2019-06-20T16:10:19.859Z,15.43
2019-06-20T16:12:21.847Z,15.08
2019-06-20T16:14:23.951Z,15.50
2019-06-20T16:16:25.951Z,14.93
2019-06-20T16:18:27.931Z,13.25
2019-06-20T16:20:30.165Z,20.10
2019-06-20T16:22:32.219Z,16.87
2019-06-20T16:24:34.231Z,11.48
2019-06-20T16:26:36.277Z,10.70
2019-06-20T16:28:38.287Z,14.70
2019-06-20T16:30:41.376Z,14.75
2019-06-20T16:32:43.509Z,12.68
2019-06-20T16:34:45.697Z,12.70
2019-06-20T16:36:47.751Z,15.43
2019-06-20T16:38:50.432Z,15.13
2019-06-20T16:40:52.891Z,9.38
2019-06-20T16:42:54.932Z,11.15
2019-06-20T16:44:57.061Z,9.28
2019-06-20T16:46:59.188Z,8.50
2019-06-20T16:49:01.243Z,11.12
2019-06-20T16:51:03.327Z,10.72
2019-06-20T16:53:05.378Z,7.92
2019-06-20T16:55:07.932Z,7.10
2019-06-20T16:57:10.366Z,8.80
2019-06-20T16:59:14.349Z,11.65
2019-06-20T17:01:16.283Z,12.18
2019-06-20T17:03:18.339Z,12.73
2019-06-20T17:05:20.643Z,10.98
2019-06-20T17:07:22.666Z,10.53
2019-06-20T17:09:24.930Z,23.20
2019-06-20T17:11:27.006Z,13.28
2019-06-20T17:13:29.072Z,14.10
2019-06-20T17:15:31.361Z,11.65
2019-06-20T17:17:33.388Z,10.58
2019-06-20T17:19:35.441Z,11.50
2019-06-20T17:21:37.453Z,11.20
2019-06-20T17:23:39.476Z,13.70
2019-06-20T17:25:41.700Z,14.50
2019-06-20T17:27:43.886Z,13.10
2019-06-20T17:29:45.887Z,17.62
2019-06-20T17:31:48.118Z,14.10
2019-06-20T17:33:57.655Z,11.93
2019-06-20T17:35:54.103Z,11.38
2019-06-20T17:37:56.332Z,14.05
2019-06-20T17:39:58.344Z,12.30
2019-06-20T17:42:00.587Z,14.73
2019-06-20T17:44:02.658Z,10.08
2019-06-20T17:46:04.997Z,14.55
2019-06-20T17:48:07.039Z,13.00
2019-06-20T17:50:09.817Z,11.63
2019-06-20T17:52:12.865Z,14.33
2019-06-20T17:54:15.426Z,10.28
2019-06-20T17:56:18.128Z,13.00
2019-06-20T17:58:20.570Z,14.78
2019-06-20T18:00:24.321Z,12.73
2019-06-20T18:02:26.384Z,13.00
2019-06-20T18:04:28.517Z,12.18
2019-06-20T18:06:30.590Z,11.85
2019-06-20T18:08:32.774Z,12.40
2019-06-20T18:10:34.979Z,11.73
2019-06-20T18:12:37.124Z,19.48
2019-06-20T18:14:39.197Z,14.90
2019-06-20T18:16:41.254Z,12.60
2019-06-20T18:18:43.310Z,12.80
2019-06-20T18:20:45.862Z,18.60
2019-06-20T18:22:47.922Z,20.95
2019-06-20T18:24:50.150Z,16.65
2019-06-20T18:26:52.208Z,12.90
2019-06-20T18:28:54.295Z,11.12
2019-06-20T18:30:56.412Z,13.15
2019-06-20T18:32:58.466Z,20.77
2019-06-20T18:35:02.276Z,12.15
2019-06-20T18:37:04.575Z,15.43
2019-06-20T18:39:06.963Z,18.82
2019-06-20T18:41:10.791Z,12.00
2019-06-20T18:43:13.311Z,15.95
2019-06-20T18:47:17.231Z,12.13
2019-06-20T18:49:19.337Z,11.63
2019-06-20T18:51:22.552Z,13.90
2019-06-20T18:53:24.792Z,11.90
2019-06-20T18:55:26.909Z,16.48
2019-06-20T18:57:29.012Z,10.95
2019-06-20T18:59:32.784Z,23.87
2019-06-20T19:01:35.193Z,19.42
2019-06-20T19:03:37.276Z,15.00
2019-06-20T19:05:39.392Z,16.30
2019-06-20T19:07:41.465Z,14.10
2019-06-20T19:09:43.550Z,15.35
2019-06-20T19:11:46.798Z,14.98
2019-06-20T19:13:48.856Z,12.95
2019-06-20T19:15:51.027Z,14.40
2019-06-20T19:17:54.227Z,16.37
2019-06-20T19:19:56.357Z,15.38
2019-06-20T19:21:58.434Z,9.80
2019-06-20T19:24:00.559Z,13.90
2019-06-20T19:26:04.102Z,12.68
2019-06-20T19:30:08.544Z,16.60
2019-06-20T19:32:10.635Z,18.00
2019-06-20T19:34:12.656Z,8.80
2019-06-20T19:36:14.963Z,11.33
2019-06-20T19:38:16.981Z,11.83
2019-06-20T19:40:22.727Z,14.10
2019-06-20T19:42:24.759Z,16.17
2019-06-20T19:44:28.483Z,11.63
2019-06-20T19:46:30.569Z,12.88
2019-06-20T19:48:32.814Z,11.70
2019-06-20T19:50:35.198Z,13.83
2019-06-20T19:52:37.292Z,16.90
2019-06-20T19:54:39.767Z,18.73
2019-06-20T19:56:41.793Z,15.28
2019-06-20T19:58:43.950Z,13.65
2019-06-20T20:00:46.007Z,13.05
2019-06-20T20:02:47.995Z,13.75
2019-06-20T20:04:50.052Z,18.23
2019-06-20T20:06:52.681Z,13.48
2019-06-20T20:08:54.741Z,15.32
2019-06-20T20:10:57.175Z,12.73
2019-06-20T20:15:01.668Z,17.15
2019-06-20T20:19:10.649Z,11.90
2019-06-20T20:21:12.921Z,16.02
2019-06-20T20:23:14.978Z,12.50
2019-06-20T20:25:18.129Z,17.87
2019-06-20T20:27:20.195Z,15.15
2019-06-20T20:29:22.229Z,12.47
2019-06-20T20:31:24.303Z,13.28
2019-06-20T20:33:26.384Z,13.65
2019-06-20T20:35:35.459Z,14.18
2019-06-20T20:37:32.433Z,16.42
2019-06-20T20:39:34.452Z,14.30
2019-06-20T20:41:36.503Z,14.10
2019-06-20T20:43:38.573Z,11.80
2019-06-20T20:45:40.948Z,11.22
2019-06-20T20:47:43.037Z,18.52
2019-06-20T20:49:45.072Z,13.85
2019-06-20T20:51:47.165Z,15.88
2019-06-20T20:53:50.335Z,13.75
2019-06-20T20:55:52.798Z,14.73
2019-06-20T20:57:55.037Z,16.32
2019-06-20T20:59:57.104Z,11.78
2019-06-20T21:01:59.128Z,15.58
2019-06-20T21:04:01.394Z,15.60
2019-06-20T21:06:03.788Z,21.27
2019-06-20T21:08:05.806Z,14.00
2019-06-20T21:10:08.415Z,16.15
2019-06-20T21:12:11.000Z,16.12
2019-06-20T21:14:13.282Z,18.73
2019-06-20T21:16:15.315Z,29.12
2019-06-20T21:18:17.793Z,14.10
2019-06-20T21:22:21.835Z,21.68
2019-06-20T21:24:23.968Z,19.27
2019-06-20T21:26:26.143Z,16.80
2019-06-20T21:28:28.225Z,15.43
2019-06-20T21:30:30.352Z,19.40
2019-06-20T21:32:32.494Z,18.57
2019-06-20T21:34:34.922Z,14.70
2019-06-20T21:36:37.202Z,15.15
2019-06-20T21:38:39.251Z,20.55
2019-06-20T21:40:41.658Z,21.52
2019-06-20T21:42:43.773Z,15.05
2019-06-20T21:44:45.974Z,15.08
2019-06-20T21:46:48.211Z,20.65
2019-06-20T21:48:50.254Z,16.23
2019-06-20T21:50:53.488Z,21.00
2019-06-20T21:52:55.602Z,11.40
2019-06-20T21:54:57.734Z,21.55
2019-06-20T21:56:59.829Z,20.60
2019-06-20T21:59:01.886Z,22.50
2019-06-20T22:01:06.910Z,18.60
2019-06-20T22:03:10.610Z,25.23
2019-06-20T22:05:15.133Z,21.10
2019-06-20T22:11:22.496Z,19.67
2019-06-20T22:13:24.857Z,17.82
2019-06-20T22:15:27.374Z,17.07
2019-06-20T22:17:29.492Z,16.82
2019-06-20T22:19:31.559Z,16.67
2019-06-20T22:21:33.801Z,14.68
2019-06-20T22:23:35.880Z,14.35
2019-06-20T22:25:38.212Z,19.37
2019-06-20T22:27:40.499Z,20.35
2019-06-20T22:29:42.906Z,17.52
2019-06-20T22:31:44.900Z,19.45
2019-06-20T22:33:47.305Z,17.00
2019-06-20T22:35:49.638Z,18.80
2019-06-20T22:37:51.639Z,19.40
2019-06-20T22:39:53.820Z,19.87
2019-06-20T22:41:55.852Z,15.83
2019-06-20T22:43:57.874Z,13.05
2019-06-20T22:45:59.901Z,21.25
2019-06-20T22:48:02.138Z,14.68
2019-06-20T22:50:05.391Z,16.40
2019-06-20T22:52:07.412Z,13.93
2019-06-20T22:54:09.976Z,18.52
2019-06-20T22:58:13.825Z,22.70
2019-06-20T23:00:16.853Z,22.90
2019-06-20T23:02:19.245Z,18.60
2019-06-20T23:04:21.374Z,22.82
2019-06-20T23:06:23.516Z,15.00
2019-06-20T23:08:25.551Z,18.45
2019-06-20T23:10:28.015Z,16.27
2019-06-20T23:14:31.876Z,20.72
2019-06-20T23:16:34.572Z,20.10
2019-06-20T23:18:36.577Z,19.82
2019-06-20T23:20:38.750Z,23.90
2019-06-20T23:22:41.288Z,14.00
2019-06-20T23:26:44.909Z,17.62
2019-06-20T23:29:03.915Z,15.83
2019-06-20T23:31:06.131Z,22.75
2019-06-20T23:33:08.173Z,14.85
2019-06-20T23:35:10.392Z,24.70
2019-06-20T23:37:13.367Z,30.17
2019-06-20T23:39:15.455Z,23.83
2019-06-20T23:41:17.468Z,19.82
2019-06-20T23:43:19.455Z,20.85
2019-06-20T23:45:22.055Z,20.88
2019-06-20T23:47:24.105Z,15.75
2019-06-20T23:49:26.497Z,19.02
2019-06-20T23:51:30.497Z,23.30
2019-06-20T23:53:32.544Z,19.77
2019-06-20T23:55:34.595Z,19.37
2019-06-20T23:57:36.674Z,20.27
2019-06-20T23:59:38.952Z,17.90
